Time;durP1;ratioP1;P1;durP2;ratioP2;P2;SDS_P1;SDS_P2;PMS_P1;PMS_P2;Temp;Humidity;BMP_temperature;BMP_pressure;BME280_temperature;BME280_humidity;BME280_pressure;Samples;Min_cycle;Max_cycle;Signal;HPM_P1;HPM_P2
2022/11/04 00:01:50;;;;;;;;;;;14.60;99.90;;;14.78;86.53;99938.69;5130366;27;19966;-77
2022/11/04 00:04:20;;;;;;;;;;;14.60;99.90;;;14.70;85.84;99943.44;5113982;28;19931;-83
2022/11/04 00:06:48;;;;;;;;;;;14.50;99.90;;;14.41;85.70;99941.81;5114104;28;19966;-83
2022/11/04 00:09:22;;;;;;;;;;;14.30;99.90;;;13.42;86.06;99792.75;5114331;28;19920;-82
2022/11/04 00:14:37;;;;;;;;;;;14.20;99.90;;;12.77;86.26;99694.91;5130483;27;20341;-82
2022/11/04 00:17:21;;;;;;;;;;;14.20;99.90;;;14.64;86.66;99962.28;5114521;28;19923;-78
2022/11/04 00:33:24;;;;;;;;;;;14.70;99.90;;;14.87;85.73;99968.53;5129984;27;19919;-80
2022/11/04 00:33:53;;;;;;;;;;;14.70;99.90;;;14.71;84.85;99956.66;5118015;28;19919;-79
2022/11/04 00:36:23;;;;;;;;;;;14.60;99.90;;;14.64;84.83;99946.31;5118491;28;19949;-79
2022/11/04 00:38:51;;;;;;;;;;;14.60;99.90;;;14.77;84.78;100004.38;5117878;28;20002;-79
2022/11/04 00:41:28;;;;;;;;;;;14.50;99.90;;;14.63;84.63;99982.72;5117620;28;20304;-79
2022/11/04 00:43:58;;;;;;;;;;;14.40;99.90;;;14.45;85.30;99983.34;5117901;28;19959;-79
2022/11/04 00:46:28;;;;;;;;;;;14.30;99.90;;;14.22;85.67;99952.19;5117681;28;19927;-80
2022/11/04 00:49:00;;;;;;;;;;;14.20;99.90;;;14.26;85.92;99963.59;5116813;28;20377;-80
2022/11/04 00:51:28;;;;;;;;;;;14.20;99.90;;;14.07;86.08;99947.34;5117915;28;20426;-80
2022/11/04 00:53:57;;;;;;;;;;;14.00;99.90;;;13.52;86.37;99896.94;5134059;27;20284;-80
2022/11/04 00:56:25;;;;;;;;;;;13.90;99.90;;;13.92;86.11;100005.47;5133748;27;19920;-79
2022/11/04 00:58:53;;;;;;;;;;;13.60;99.90;;;13.73;86.47;99961.78;5117638;28;19920;-81
2022/11/04 01:01:22;;;;;;;;;;;13.60;99.90;;;13.79;86.66;99993.50;5118173;28;20002;-82
2022/11/04 01:03:53;;;;;;;;;;;13.60;99.90;;;14.02;86.89;100012.25;5117376;28;19949;-80
2022/11/04 01:06:24;;;;;;;;;;;13.70;99.90;;;13.98;86.73;100018.56;5117399;28;20417;-81
2022/11/04 01:08:55;;;;;;;;;;;13.70;99.90;;;13.95;86.27;100026.66;5117391;28;19926;-81
2022/11/04 01:11:24;;;;;;;;;;;13.70;99.90;;;13.57;86.05;100015.41;5117605;28;19933;-82
2022/11/04 01:13:52;;;;;;;;;;;13.50;99.90;;;12.98;85.84;99939.28;5117281;28;20365;-82
2022/11/04 01:16:21;;;;;;;;;;;13.30;99.90;;;13.23;86.00;100006.72;5117109;28;19926;-81
2022/11/04 01:18:49;;;;;;;;;;;13.20;99.90;;;12.96;86.19;99922.53;5117120;28;19923;-82
2022/11/04 01:21:18;;;;;;;;;;;13.20;99.90;;;13.43;86.49;99991.06;5117607;28;19969;-81
2022/11/04 01:23:47;;;;;;;;;;;13.30;99.90;;;12.65;86.34;99856.22;5116869;28;19920;-82
2022/11/04 01:26:17;;;;;;;;;;;13.30;99.90;;;13.39;86.21;100000.03;5116926;28;19919;-82
2022/11/04 01:28:46;;;;;;;;;;;13.30;99.90;;;13.44;86.39;100027.34;5117012;28;20376;-81
2022/11/04 01:31:15;;;;;;;;;;;13.30;99.90;;;13.30;86.54;100004.75;5116898;28;19992;-83
2022/11/04 01:33:44;;;;;;;;;;;13.20;99.90;;;13.47;87.18;100045.84;5116948;28;20018;-82
2022/11/04 01:36:13;;;;;;;;;;;13.20;99.90;;;13.45;87.45;100034.38;5116813;28;20312;-81
2022/11/04 01:38:41;;;;;;;;;;;13.30;99.90;;;13.61;87.36;100058.72;5116802;28;20485;-83
2022/11/04 01:41:20;;;;;;;;;;;13.30;99.90;;;13.49;87.07;100059.09;5116751;28;20285;-83
2022/11/04 01:43:51;;;;;;;;;;;13.20;99.90;;;13.35;88.71;100062.16;5116621;28;19951;-81
2022/11/04 01:46:27;;;;;;;;;;;13.10;99.90;;;13.21;89.25;100040.41;5116628;28;19966;-82
2022/11/04 01:48:59;;;;;;;;;;;13.00;99.90;;;13.25;89.69;100060.66;5116632;28;20018;-82
2022/11/04 01:51:28;;;;;;;;;;;13.00;99.90;;;13.33;88.98;100049.81;5116604;28;19920;-81
2022/11/04 01:53:56;;;;;;;;;;;13.10;99.90;;;13.25;88.90;100059.78;5116426;28;19926;-82
2022/11/04 01:56:27;;;;;;;;;;;13.00;99.90;;;13.45;88.72;100065.41;5116992;28;19919;-81
2022/11/04 01:58:58;;;;;;;;;;;13.20;99.90;;;13.55;88.86;100065.09;5116612;28;19920;-81
2022/11/04 02:01:26;;;;;;;;;;;13.30;99.90;;;13.06;88.86;99969.19;5116329;28;20389;-81
2022/11/04 02:04:24;;;;;;;;;;;13.40;99.90;;;13.66;89.03;100072.75;5132574;27;20519;-81
2022/11/04 02:06:46;;;;;;;;;;;13.40;99.90;;;12.87;88.84;99925.47;5132081;27;19919;-81
2022/11/04 02:09:15;;;;;;;;;;;13.50;99.90;;;13.62;88.37;100056.94;5116447;28;19969;-81
2022/11/04 02:14:31;;;;;;;;;;;13.50;99.90;;;13.50;88.25;100048.41;5116464;28;20439;-80
2022/11/04 02:17:06;;;;;;;;;;;13.50;99.90;;;13.49;87.96;100049.31;5132295;27;19919;-80
2022/11/04 02:19:55;;;;;;;;;;;13.40;99.90;;;13.65;87.94;100063.03;5116110;28;19920;-80
2022/11/04 02:22:36;;;;;;;;;;;13.50;99.90;;;13.55;87.46;100035.84;5132210;27;19932;-80
2022/11/04 02:25:25;;;;;;;;;;;13.50;99.90;;;13.66;87.51;100064.78;5115873;28;20356;-80
2022/11/04 02:28:13;;;;;;;;;;;13.50;99.90;;;13.54;87.21;100044.75;5115814;28;19946;-80
2022/11/04 02:30:46;;;;;;;;;;;13.50;99.90;;;13.70;87.01;100084.16;5115772;28;20015;-80
2022/11/04 02:33:19;;;;;;;;;;;13.50;99.90;;;13.44;86.76;100045.06;5115793;28;19926;-72
2022/11/04 02:35:54;;;;;;;;;;;13.50;99.90;;;13.70;87.30;100078.84;5115795;28;19919;-72
2022/11/04 02:38:31;;;;;;;;;;;13.50;99.90;;;13.68;86.86;100080.66;5115698;28;19924;-72
2022/11/04 02:41:06;;;;;;;;;;;13.40;99.90;;;13.57;87.09;100075.66;5115563;28;20356;-71
2022/11/04 02:43:42;;;;;;;;;;;13.40;99.90;;;13.63;87.02;100075.47;5115875;28;19919;-70
2022/11/04 02:46:17;;;;;;;;;;;13.40;99.90;;;13.62;87.39;100072.88;5115894;28;19927;-70
2022/11/04 02:48:47;;;;;;;;;;;13.40;99.90;;;13.67;87.26;100085.09;5115736;28;19926;-70
2022/11/04 02:51:19;;;;;;;;;;;13.40;99.90;;;13.53;87.04;100072.22;5115385;28;20373;-70
2022/11/04 02:53:52;;;;;;;;;;;13.40;99.90;;;13.56;86.87;100074.81;5115030;28;20006;-70
2022/11/04 02:56:22;;;;;;;;;;;13.40;99.90;;;13.53;87.11;100071.34;5115480;28;19919;-69
2022/11/04 02:58:54;;;;;;;;;;;13.30;99.90;;;13.52;86.91;100070.50;5113946;28;19920;-70
2022/11/04 03:01:27;;;;;;;;;;;13.30;99.90;;;13.50;87.06;100075.00;5115224;28;19923;-70
2022/11/04 03:04:00;;;;;;;;;;;13.30;99.90;;;13.55;87.06;100067.75;5115706;28;19926;-69
2022/11/04 03:06:29;;;;;;;;;;;13.30;99.90;;;13.47;87.12;100072.41;5115023;28;19926;-70
2022/11/04 03:08:57;;;;;;;;;;;13.20;99.90;;;13.36;87.12;100049.72;5114980;28;19920;-69
2022/11/04 03:11:27;;;;;;;;;;;13.30;99.90;;;13.49;87.12;100075.88;5115240;28;19927;-69
2022/11/04 03:13:58;;;;;;;;;;;13.30;99.90;;;13.46;87.21;100076.00;5114931;28;19919;-68
2022/11/04 03:16:31;;;;;;;;;;;13.20;99.90;;;13.38;87.43;100077.97;5115125;28;19919;-70
2022/11/04 03:19:04;;;;;;;;;;;13.20;99.90;;;13.38;87.75;100085.06;5114864;28;19920;-69
2022/11/04 03:21:35;;;;;;;;;;;13.10;99.90;;;13.37;87.90;100086.00;5114812;28;19923;-69
2022/11/04 03:24:04;;;;;;;;;;;13.20;99.90;;;13.31;87.98;100089.72;5115111;28;19926;-69
2022/11/04 03:26:38;;;;;;;;;;;13.10;99.90;;;13.30;88.24;100087.94;5115068;28;19920;-69
2022/11/04 03:29:16;;;;;;;;;;;13.10;99.90;;;13.26;88.40;100078.31;5114689;28;20292;-69
2022/11/04 03:31:49;;;;;;;;;;;13.10;99.90;;;13.31;88.47;100092.38;5114589;28;19920;-68
2022/11/04 03:34:17;;;;;;;;;;;13.10;99.90;;;13.31;88.68;100089.72;5114900;28;19926;-68
2022/11/04 03:36:45;;;;;;;;;;;13.10;99.90;;;13.26;88.42;100082.75;5113508;28;20328;-69
2022/11/04 03:39:13;;;;;;;;;;;13.10;99.90;;;13.29;88.49;100091.53;5114690;28;19926;-69
2022/11/04 03:41:44;;;;;;;;;;;13.10;99.90;;;13.26;88.37;100104.00;5113359;28;19931;-69
2022/11/04 03:44:12;;;;;;;;;;;13.00;99.90;;;13.18;88.43;100090.94;5114401;28;19931;-69
2022/11/04 03:46:40;;;;;;;;;;;13.00;99.90;;;12.99;87.91;100092.31;5114269;28;19920;-69
2022/11/04 03:49:12;;;;;;;;;;;13.00;99.90;;;13.02;88.24;100115.28;5114572;28;19920;-69
2022/11/04 03:51:40;;;;;;;;;;;12.80;99.90;;;13.00;88.59;100119.75;5114333;28;19924;-70
2022/11/04 03:54:08;;;;;;;;;;;12.80;99.90;;;12.97;88.38;100119.84;5114257;28;19920;-69
2022/11/04 03:56:56;;;;;;;;;;;12.70;99.90;;;12.96;88.34;100112.78;5114221;28;19924;-69
2022/11/04 03:59:36;;;;;;;;;;;12.80;99.90;;;12.99;88.52;100126.84;5114235;28;19923;-69
2022/11/04 04:02:10;;;;;;;;;;;12.70;99.90;;;13.04;88.39;100122.31;5113525;28;19926;-69
2022/11/04 04:04:44;;;;;;;;;;;12.80;99.90;;;13.04;88.38;100122.31;5114222;28;19958;-68
2022/11/04 04:07:15;;;;;;;;;;;12.80;99.90;;;13.10;87.97;100129.25;5113365;28;20294;-69
2022/11/04 04:09:45;;;;;;;;;;;12.90;99.90;;;13.05;87.66;100129.38;5114103;28;19919;-69
2022/11/04 04:12:17;;;;;;;;;;;12.80;99.90;;;13.05;87.32;100123.16;5114052;28;19920;-69
2022/11/04 04:14:48;;;;;;;;;;;12.90;99.90;;;13.11;87.25;100139.81;5130175;27;20371;-69
2022/11/04 04:17:19;;;;;;;;;;;12.90;99.90;;;13.08;86.49;100145.22;5114002;28;19927;-69
2022/11/04 04:19:52;;;;;;;;;;;12.90;99.90;;;13.07;86.56;100146.13;5113988;28;19919;-69
2022/11/04 04:22:23;;;;;;;;;;;12.90;99.90;;;13.13;86.49;100148.63;5114036;28;19919;-69
2022/11/04 04:27:39;;;;;;;;;;;12.90;99.90;;;13.01;86.04;100134.75;5113924;28;19926;-69
2022/11/04 04:30:10;;;;;;;;;;;12.90;99.90;;;13.12;85.91;100148.66;5113853;28;19973;-69
2022/11/04 04:32:41;;;;;;;;;;;12.90;99.90;;;13.16;85.98;100158.31;5114706;28;19927;-69
2022/11/04 04:44:58;;;;;;;;;;;13.00;99.90;;;13.24;85.71;100169.59;5129976;28;20360;-69
2022/11/04 04:46:25;;;;;;;;;;;13.10;99.90;;;13.12;84.68;100175.22;5113681;28;19920;-69
2022/11/04 04:48:53;;;;;;;;;;;13.00;99.90;;;13.05;85.04;100182.47;5113644;28;19923;-69
2022/11/04 04:51:22;;;;;;;;;;;12.90;99.90;;;13.01;85.06;100191.38;5113655;28;20078;-69
2022/11/04 04:53:50;;;;;;;;;;;12.80;99.90;;;13.05;85.50;100193.06;5114187;28;20010;-69
2022/11/04 04:56:18;;;;;;;;;;;12.80;99.90;;;13.04;85.35;100183.38;5113880;28;19965;-69
2022/11/04 04:58:46;;;;;;;;;;;12.80;99.90;;;13.14;85.48;100189.34;5113882;28;19919;-68
2022/11/04 05:01:15;;;;;;;;;;;12.80;99.90;;;13.20;85.34;100198.00;5113844;28;19920;-69
2022/11/04 05:03:43;;;;;;;;;;;12.90;99.90;;;13.26;85.29;100195.19;5113512;28;19928;-68
2022/11/04 05:06:12;;;;;;;;;;;13.00;99.90;;;13.24;84.98;100202.31;5112530;28;19927;-69
2022/11/04 05:08:41;;;;;;;;;;;13.00;99.90;;;13.16;84.87;100204.28;5113415;28;20281;-69
2022/11/04 05:11:09;;;;;;;;;;;12.90;99.90;;;13.07;85.07;100199.22;5113496;28;19919;-68
2022/11/04 05:13:37;;;;;;;;;;;12.80;99.90;;;13.06;85.25;100209.88;5113977;28;19968;-69
2022/11/04 05:16:07;;;;;;;;;;;12.80;99.90;;;13.14;85.41;100206.09;5113446;28;19920;-69
2022/11/04 05:18:36;;;;;;;;;;;12.90;99.90;;;13.11;85.46;100208.84;5115840;28;19926;-69
2022/11/04 05:21:04;;;;;;;;;;;12.90;99.90;;;13.13;85.83;100217.66;5117713;28;19923;-68
2022/11/04 05:23:33;;;;;;;;;;;12.90;99.90;;;13.11;85.19;100232.75;5117328;28;20373;-69
2022/11/04 05:26:02;;;;;;;;;;;12.90;99.90;;;13.13;85.68;100235.38;5117023;28;19924;-69
2022/11/04 05:28:30;;;;;;;;;;;12.90;99.90;;;13.15;85.64;100238.84;5116905;28;19920;-68
2022/11/04 05:31:02;;;;;;;;;;;12.90;99.90;;;13.07;85.70;100236.41;5117517;28;19926;-69
2022/11/04 05:33:31;;;;;;;;;;;12.80;99.90;;;13.03;86.40;100240.03;5117581;28;19919;-69
2022/11/04 05:36:05;;;;;;;;;;;12.80;99.90;;;13.12;86.65;100247.78;5117094;28;19919;-69
2022/11/04 05:38:34;;;;;;;;;;;12.80;99.90;;;13.20;86.62;100247.59;5116911;28;20006;-69
2022/11/04 05:41:03;;;;;;;;;;;13.00;99.90;;;13.23;86.79;100251.03;5116737;28;19920;-69
2022/11/04 05:43:31;;;;;;;;;;;13.00;99.90;;;13.23;86.59;100248.38;5116731;28;19920;-69
2022/11/04 05:46:00;;;;;;;;;;;13.10;99.90;;;13.23;86.61;100245.72;5116922;28;19972;-69
2022/11/04 05:48:28;;;;;;;;;;;13.10;99.90;;;13.11;86.50;100230.09;5116567;28;19919;-69
2022/11/04 05:50:56;;;;;;;;;;;13.10;99.90;;;13.24;86.59;100255.44;5116583;28;19920;-69
2022/11/04 05:53:24;;;;;;;;;;;13.10;99.90;;;13.20;86.75;100255.56;5116523;28;19923;-68
2022/11/04 05:55:57;;;;;;;;;;;13.00;99.90;;;13.15;86.91;100252.13;5116507;28;19920;-69
2022/11/04 05:58:27;;;;;;;;;;;13.00;99.90;;;13.15;87.07;100255.66;5116437;28;19926;-69
2022/11/04 06:00:55;;;;;;;;;;;12.90;99.90;;;13.16;87.32;100251.25;5116391;28;19958;-69
2022/11/04 06:03:23;;;;;;;;;;;13.00;99.90;;;13.20;87.40;100267.03;5116397;28;19931;-71
2022/11/04 06:05:51;;;;;;;;;;;13.00;99.90;;;13.24;87.31;100266.06;5116368;28;20323;-71
2022/11/04 06:08:19;;;;;;;;;;;13.00;99.90;;;13.26;87.53;100281.94;5116195;28;19920;-71
2022/11/04 06:10:47;;;;;;;;;;;13.00;99.90;;;13.23;87.48;100279.38;5116564;28;19958;-72
2022/11/04 06:13:15;;;;;;;;;;;13.00;99.90;;;13.20;87.55;100275.00;5116415;28;19928;-71
2022/11/04 06:15:44;;;;;;;;;;;13.00;99.90;;;12.99;87.18;100272.84;5116093;28;20368;-71
2022/11/04 06:18:12;;;;;;;;;;;12.80;99.90;;;12.85;87.70;100277.63;5116341;28;19920;-71
2022/11/04 06:20:40;;;;;;;;;;;12.60;99.90;;;12.65;87.61;100274.53;5116059;28;19920;-72
2022/11/04 06:23:08;;;;;;;;;;;12.40;99.90;;;12.65;87.97;100280.72;5116023;28;19923;-71
2022/11/04 06:25:37;;;;;;;;;;;12.30;99.90;;;12.54;88.09;100276.56;5115910;28;20385;-71
2022/11/04 06:28:05;;;;;;;;;;;12.30;99.90;;;12.53;88.31;100278.34;5115830;28;19919;-70
2022/11/04 06:30:33;;;;;;;;;;;12.30;99.90;;;12.41;88.56;100275.94;5114750;28;19958;-69
2022/11/04 06:33:02;;;;;;;;;;;12.20;99.90;;;12.28;88.90;100278.88;5115760;28;19927;-69
2022/11/04 06:35:31;;;;;;;;;;;12.10;99.90;;;12.07;89.72;100274.00;5115630;28;20277;-70
2022/11/04 06:37:59;;;;;;;;;;;12.00;99.90;;;11.79;90.52;100274.56;5116263;28;20291;-69
2022/11/04 06:40:27;;;;;;;;;;;11.80;99.90;;;11.57;91.46;100273.19;5115438;28;19992;-69
2022/11/04 06:42:55;;;;;;;;;;;11.60;99.90;;;11.55;92.17;100263.50;5115823;28;19920;-69
2022/11/04 06:45:23;;;;;;;;;;;11.50;99.90;;;11.35;92.25;100274.44;5115820;28;19920;-69
2022/11/04 06:47:51;;;;;;;;;;;11.40;99.90;;;11.35;92.76;100271.81;5115329;28;19923;-69
2022/11/04 06:50:21;;;;;;;;;;;11.30;99.90;;;11.28;92.99;100259.59;5115592;28;20273;-69
2022/11/04 06:52:49;;;;;;;;;;;11.30;99.90;;;11.39;93.43;100272.63;5115343;28;20373;-69
2022/11/04 06:55:17;;;;;;;;;;;11.30;99.90;;;11.33;93.63;100278.91;5115560;28;19924;-69
2022/11/04 06:57:45;;;;;;;;;;;11.30;99.90;;;11.37;93.63;100277.94;5115154;28;19926;-69
2022/11/04 07:00:14;;;;;;;;;;;11.30;99.90;;;11.29;93.78;100277.19;5115409;28;19944;-69
2022/11/04 07:02:42;;;;;;;;;;;11.30;99.90;;;11.25;94.28;100286.09;5115845;28;19927;-69
2022/11/04 07:05:11;;;;;;;;;;;11.20;99.90;;;11.25;94.86;100279.91;5115190;28;19924;-69
2022/11/04 07:07:40;;;;;;;;;;;11.20;99.90;;;11.20;95.58;100281.78;5115509;28;19926;-69
2022/11/04 07:10:09;;;;;;;;;;;11.10;99.90;;;11.11;96.20;100266.91;5114847;28;19920;-69
2022/11/04 07:12:37;;;;;;;;;;;11.10;99.90;;;11.36;96.55;100304.47;5115036;28;19965;-68
2022/11/04 07:15:06;;;;;;;;;;;11.20;99.90;;;11.53;96.32;100310.34;5114954;28;20276;-69
2022/11/04 07:17:34;;;;;;;;;;;11.40;99.90;;;11.74;96.23;100312.63;5114788;28;20393;-69
2022/11/04 07:20:04;;;;;;;;;;;11.60;99.90;;;11.89;95.99;100311.47;5114799;28;20377;-69
2022/11/04 07:22:32;;;;;;;;;;;11.70;99.90;;;12.08;95.71;100313.75;5114760;28;19919;-69
2022/11/04 07:25:01;;;;;;;;;;;12.00;99.90;;;12.29;95.39;100321.28;5114772;28;19919;-69
2022/11/04 07:27:30;;;;;;;;;;;12.20;99.90;;;12.56;94.99;100322.50;5114859;28;20292;-68
2022/11/04 07:29:58;;;;;;;;;;;12.50;99.90;;;12.93;94.20;100334.03;5114466;28;20391;-69
2022/11/04 07:32:28;;;;;;;;;;;12.80;99.90;;;13.28;93.42;100343.88;5115105;28;19927;-69
2022/11/04 07:34:56;;;;;;;;;;;13.20;99.90;;;13.45;91.84;100347.88;5114528;28;19923;-69
2022/11/04 07:37:24;;;;;;;;;;;13.40;99.90;;;13.44;89.60;100351.44;5114545;28;20376;-69
2022/11/04 07:39:52;;;;;;;;;;;13.30;99.90;;;13.43;88.62;100349.69;5113427;28;19927;-70
2022/11/04 07:42:21;;;;;;;;;;;13.30;99.90;;;13.54;88.35;100360.06;5130176;27;19919;-69
2022/11/04 07:44:54;;;;;;;;;;;13.40;99.90;;;13.63;87.91;100369.59;5130610;27;20276;-68
2022/11/04 07:47:22;;;;;;;;;;;13.40;99.90;;;13.56;88.02;100364.44;5114226;28;19924;-69
2022/11/04 07:49:50;;;;;;;;;;;13.40;99.90;;;13.72;88.61;100366.72;5114753;28;19920;-69
2022/11/04 07:52:19;;;;;;;;;;;13.50;99.90;;;13.78;88.26;100375.38;5114355;28;19919;-69
2022/11/04 07:54:47;;;;;;;;;;;13.60;99.90;;;13.85;88.08;100374.34;5114213;28;19940;-69
2022/11/04 07:57:15;;;;;;;;;;;13.60;99.90;;;13.85;87.21;100381.44;5114119;28;19920;-67
2022/11/04 07:59:44;;;;;;;;;;;13.60;99.90;;;13.90;87.01;100384.88;5114884;28;19928;-68
2022/11/04 08:02:12;;;;;;;;;;;13.70;99.90;;;14.00;86.49;100389.00;5114845;28;19919;-75
2022/11/04 08:04:41;;;;;;;;;;;13.80;99.90;;;14.20;86.73;100392.91;5115945;28;19926;-74
2022/11/04 08:07:09;;;;;;;;;;;13.90;99.90;;;14.35;86.35;100396.97;5116055;28;19965;-74
2022/11/04 08:09:37;;;;;;;;;;;14.10;99.90;;;14.43;85.37;100387.88;5131523;27;19965;-74
2022/11/04 08:12:06;;;;;;;;;;;14.30;99.90;;;14.51;84.89;100390.31;5114992;28;20014;-74
2022/11/04 08:14:34;;;;;;;;;;;14.40;99.90;;;14.81;84.46;100407.16;5115717;28;19973;-73
2022/11/04 08:17:03;;;;;;;;;;;14.70;99.90;;;15.11;84.09;100409.81;5114520;28;19919;-74
2022/11/04 08:19:31;;;;;;;;;;;14.90;99.90;;;15.59;83.61;100409.22;5114476;28;20310;-72
2022/11/04 08:21:59;;;;;;;;;;;15.40;99.90;;;16.03;81.90;100413.97;5113058;28;20361;-74
2022/11/04 08:24:28;;;;;;;;;;;15.90;99.90;;;16.45;80.34;100416.97;5114107;28;20001;-74
2022/11/04 08:26:56;;;;;;;;;;;16.40;99.90;;;16.92;78.71;100418.78;5130180;28;19956;-69
2022/11/04 08:29:25;;;;;;;;;;;16.80;99.90;;;17.35;76.12;100420.69;5113752;28;19920;-69
2022/11/04 08:31:53;;;;;;;;;;;17.30;99.90;;;17.79;74.17;100427.84;5114101;28;19920;-66
2022/11/04 08:34:22;;;;;;;;;;;17.80;99.90;;;18.13;72.18;100435.34;5113683;28;19926;-67
2022/11/04 08:36:52;;;;;;;;;;;18.10;99.90;;;18.44;71.65;100446.53;5114021;28;20373;-66
2022/11/04 08:39:20;;;;;;;;;;;18.40;99.90;;;18.68;71.02;100451.66;5113998;28;19926;-68
2022/11/04 08:41:49;;;;;;;;;;;18.70;99.90;;;18.81;69.46;100452.88;5113818;28;20419;-68
2022/11/04 08:44:21;;;;;;;;;;;18.80;99.90;;;18.73;69.00;100454.16;5114149;28;19932;-71
2022/11/04 08:46:49;;;;;;;;;;;18.70;99.90;;;18.41;69.18;100458.19;5113612;28;19919;-70
2022/11/04 08:49:17;;;;;;;;;;;18.40;99.90;;;18.15;68.64;100463.81;5113816;28;19931;-70
2022/11/04 08:51:58;;;;;;;;;;;18.10;99.90;;;18.15;69.49;100460.25;5114248;28;19966;-70
2022/11/04 08:54:27;;;;;;;;;;;18.00;99.90;;;18.18;69.35;100457.44;5117769;28;20369;-71
2022/11/04 08:56:55;;;;;;;;;;;18.00;99.90;;;17.93;70.04;100454.91;5117833;28;19920;-68
2022/11/04 08:59:24;;;;;;;;;;;17.80;99.90;;;17.60;69.92;100466.97;5117554;28;20404;-83
2022/11/04 09:01:52;;;;;;;;;;;17.50;99.90;;;17.34;70.37;100478.66;5117618;28;19926;-80
2022/11/04 09:04:20;;;;;;;;;;;17.20;99.90;;;17.19;71.20;100475.69;5117667;27;19989;-74
2022/11/04 09:06:51;;;;;;;;;;;16.90;99.90;;;17.03;71.95;100465.56;5117443;28;20407;-68
2022/11/04 09:09:19;;;;;;;;;;;16.80;99.90;;;17.05;72.36;100469.03;5117407;28;19980;-69
2022/11/04 09:11:48;;;;;;;;;;;16.80;99.90;;;16.75;72.85;100470.16;5116262;28;19923;-69
2022/11/04 09:14:17;;;;;;;;;;;16.50;99.90;;;16.94;74.38;100473.03;5117330;27;19944;-69
2022/11/04 09:16:45;;;;;;;;;;;16.60;99.90;;;17.04;72.78;100466.44;5117213;28;19920;-72
2022/11/04 09:19:13;;;;;;;;;;;16.80;99.90;;;17.36;73.25;100478.59;5116112;28;20391;-71
2022/11/04 09:21:41;;;;;;;;;;;17.00;99.90;;;17.49;71.43;100470.06;5116015;28;20365;-71
2022/11/04 09:24:11;;;;;;;;;;;17.20;99.90;;;17.86;72.24;100483.75;5117122;28;20281;-71
2022/11/04 09:26:39;;;;;;;;;;;17.50;99.90;;;18.01;71.67;100490.25;5117321;28;19919;-72
2022/11/04 09:29:08;;;;;;;;;;;17.80;99.90;;;18.06;71.16;100498.97;5117144;28;19919;-68
2022/11/04 09:31:37;;;;;;;;;;;17.90;99.90;;;17.89;69.93;100482.72;5117506;28;19923;-68
2022/11/04 09:34:05;;;;;;;;;;;17.80;99.90;;;18.08;69.98;100498.94;5116915;28;20396;-67
2022/11/04 09:36:33;;;;;;;;;;;17.90;99.90;;;17.91;69.50;100499.59;5116873;28;19920;-67
2022/11/04 09:39:01;;;;;;;;;;;17.80;99.90;;;17.61;69.20;100495.47;5116761;28;19934;-67
2022/11/04 09:41:47;;;;;;;;;;;17.50;99.90;;;17.48;70.02;100507.53;5116925;28;19927;-67
2022/11/04 09:44:22;;;;;;;;;;;17.30;99.90;;;17.37;70.18;100512.41;5115964;28;19927;-67
2022/11/04 09:46:53;;;;;;;;;;;17.20;99.90;;;17.32;70.46;100511.72;5115711;28;20399;-67
2022/11/04 09:49:21;;;;;;;;;;;17.10;99.90;;;17.27;70.86;100514.56;5116574;28;19920;-67
2022/11/04 09:51:50;;;;;;;;;;;17.10;99.90;;;17.23;71.23;100514.75;5116601;27;20372;-67
2022/11/04 09:54:24;;;;;;;;;;;17.00;99.90;;;17.20;71.59;100526.41;5116678;28;19927;-69
2022/11/04 09:56:55;;;;;;;;;;;17.00;99.90;;;17.24;71.90;100533.41;5116482;28;20368;-69
2022/11/04 09:59:27;;;;;;;;;;;17.00;99.90;;;17.24;72.12;100535.19;5116628;28;19919;-70
2022/11/04 10:02:21;;;;;;;;;;;17.00;99.90;;;17.23;72.20;100539.66;5116335;28;19920;-71
2022/11/04 10:04:59;;;;;;;;;;;17.00;99.90;;;17.27;72.14;100543.97;5116937;28;20011;-69
2022/11/04 10:07:37;;;;;;;;;;;17.00;99.90;;;17.23;72.30;100549.50;5116641;28;19923;-72
2022/11/04 10:10:12;;;;;;;;;;;17.00;99.90;;;17.23;72.39;100552.19;5116740;28;20006;-76
2022/11/04 10:13:00;;;;;;;;;;;17.00;99.90;;;17.11;72.62;100557.00;5116598;28;19919;-79
2022/11/04 10:15:41;;;;;;;;;;;17.00;99.90;;;17.01;72.90;100566.28;5116478;28;20315;-74
2022/11/04 10:18:22;;;;;;;;;;;16.90;99.90;;;16.93;72.93;100568.38;5116493;28;19927;-84
2022/11/04 10:20:57;;;;;;;;;;;16.80;99.90;;;16.89;72.89;100571.19;5116717;27;20014;-73
2022/11/04 10:23:32;;;;;;;;;;;16.70;99.90;;;16.82;73.00;100583.03;5116635;28;19973;-73
2022/11/04 10:26:07;;;;;;;;;;;16.60;99.90;;;16.91;73.71;100585.38;5116535;28;19924;-73
2022/11/04 10:28:42;;;;;;;;;;;16.70;99.90;;;16.89;73.13;100582.78;5116251;28;19920;-76
2022/11/04 10:31:13;;;;;;;;;;;16.60;99.90;;;16.74;72.63;100579.75;5116214;28;19920;-73
2022/11/04 10:33:43;;;;;;;;;;;16.50;99.90;;;16.58;72.85;100576.72;5115812;27;19920;-73
2022/11/04 10:36:12;;;;;;;;;;;16.40;99.90;;;16.63;72.76;100580.09;5116123;28;20349;-72
2022/11/04 10:38:43;;;;;;;;;;;16.40;99.90;;;16.58;72.83;100592.75;5115824;28;20266;-74
2022/11/04 10:41:22;;;;;;;;;;;16.30;99.90;;;16.70;72.97;100591.47;5115380;28;20353;-68
2022/11/04 10:43:55;;;;;;;;;;;16.40;99.90;;;16.86;73.87;100595.38;5115768;28;19926;-69
2022/11/04 10:46:43;;;;;;;;;;;16.60;99.90;;;16.36;71.69;100508.03;5115537;28;19927;-68
2022/11/04 10:49:29;;;;;;;;;;;16.60;99.90;;;17.00;73.03;100601.09;5115549;28;19920;-68
2022/11/04 10:51:57;;;;;;;;;;;16.70;99.90;;;17.03;73.12;100601.00;5115428;28;19923;-68
2022/11/04 10:54:27;;;;;;;;;;;16.80;99.90;;;16.86;72.63;100584.69;5115615;28;19919;-73
2022/11/04 10:56:56;;;;;;;;;;;16.90;99.90;;;17.00;72.29;100607.31;5115750;28;19926;-75
2022/11/04 10:59:27;;;;;;;;;;;16.90;99.90;;;16.93;72.38;100603.13;5131572;27;19926;-73
2022/11/04 11:01:57;;;;;;;;;;;16.70;99.90;;;17.03;71.65;100614.34;5115619;28;20010;-71
2022/11/04 11:04:31;;;;;;;;;;;16.80;99.90;;;17.07;72.19;100616.84;5115127;28;19959;-74
2022/11/04 11:07:00;;;;;;;;;;;16.90;99.90;;;17.26;72.57;100622.44;5114822;28;20311;-72
2022/11/04 11:09:29;;;;;;;;;;;17.00;99.90;;;17.33;71.41;100623.06;5114889;28;20483;-71
2022/11/04 11:11:59;;;;;;;;;;;17.10;99.90;;;17.44;71.37;100627.09;5114583;28;19923;-70
2022/11/04 11:14:37;;;;;;;;;;;17.20;99.90;;;17.52;70.92;100633.09;5114994;28;19930;-72
2022/11/04 11:17:21;;;;;;;;;;;17.30;99.90;;;17.59;70.67;100639.97;5114791;28;20380;-71
2022/11/04 11:19:54;;;;;;;;;;;17.30;99.90;;;17.55;69.92;100640.13;5115191;28;20368;-75
2022/11/04 11:22:31;;;;;;;;;;;17.30;99.90;;;17.58;70.39;100643.56;5115804;28;20032;-72
2022/11/04 11:25:22;;;;;;;;;;;17.40;99.90;;;17.71;71.00;100647.53;5114991;28;19926;-71
2022/11/04 11:27:52;;;;;;;;;;;17.50;99.90;;;17.91;70.95;100649.44;5114643;28;19920;-71
2022/11/04 11:30:28;;;;;;;;;;;17.70;99.90;;;18.08;70.08;100655.03;5130534;27;19926;-72
2022/11/04 11:32:58;;;;;;;;;;;17.80;99.90;;;18.31;69.52;100657.69;5114646;28;20288;-72
2022/11/04 11:35:30;;;;;;;;;;;18.10;99.90;;;18.54;68.87;100663.03;5115168;28;19920;-70
2022/11/04 11:38:00;;;;;;;;;;;18.40;99.90;;;18.38;67.41;100635.09;5114819;28;19926;-73
2022/11/04 11:40:30;;;;;;;;;;;18.50;99.90;;;18.36;65.65;100662.88;5114787;28;19927;-75
2022/11/04 11:43:00;;;;;;;;;;;18.30;99.90;;;17.01;67.67;100665.16;5113603;28;20348;-74
2022/11/04 11:45:29;;;;;;;;;;;17.10;99.90;;;16.94;69.35;100663.63;5114435;28;19930;-73
2022/11/04 11:47:58;;;;;;;;;;;16.80;99.90;;;17.22;67.77;100679.59;5114379;28;19924;-70
2022/11/04 11:50:31;;;;;;;;;;;16.90;99.90;;;17.20;65.39;100678.78;5114842;28;19926;-70
2022/11/04 11:53:16;;;;;;;;;;;16.90;99.90;;;16.92;64.07;100656.59;5113631;28;20018;-71
2022/11/04 11:55:48;;;;;;;;;;;17.00;99.90;;;16.98;63.28;100673.28;5114639;28;20399;-72